sensor_id;sensor_type;location;lat;lon;timestamp;pressure;altitude;pressure_sealevel;temperature;humidity
59063;BME280;44851;45.648;9.004;2023-05-09T00:01:52;99302.81;;;18.38;54.25
59063;BME280;44851;45.648;9.004;2023-05-09T00:04:18;99292.25;;;18.38;56.12
59063;BME280;44851;45.648;9.004;2023-05-09T00:06:44;99294.16;;;18.45;57.59
59063;BME280;44851;45.648;9.004;2023-05-09T00:09:10;99292.53;;;18.43;58.28
59063;BME280;44851;45.648;9.004;2023-05-09T00:11:36;99284.59;;;18.29;58.89
59063;BME280;44851;45.648;9.004;2023-05-09T00:14:01;99283.69;;;18.36;60.77
59063;BME280;44851;45.648;9.004;2023-05-09T00:16:28;99288.22;;;18.42;60.68
59063;BME280;44851;45.648;9.004;2023-05-09T00:18:53;99273.94;;;18.37;60.39
59063;BME280;44851;45.648;9.004;2023-05-09T00:21:20;99284.22;;;18.32;62.10
59063;BME280;44851;45.648;9.004;2023-05-09T00:23:45;99275.75;;;18.22;62.75
59063;BME280;44851;45.648;9.004;2023-05-09T00:26:11;99273.13;;;18.22;63.38
59063;BME280;44851;45.648;9.004;2023-05-09T00:28:36;99266.66;;;18.09;64.29
59063;BME280;44851;45.648;9.004;2023-05-09T00:31:02;99264.22;;;18.08;64.16
59063;BME280;44851;45.648;9.004;2023-05-09T00:33:28;99269.13;;;17.96;63.19
59063;BME280;44851;45.648;9.004;2023-05-09T00:35:53;99265.25;;;17.84;63.64
59063;BME280;44851;45.648;9.004;2023-05-09T00:38:19;99261.97;;;17.82;63.21
59063;BME280;44851;45.648;9.004;2023-05-09T00:40:44;99261.06;;;17.75;63.98
59063;BME280;44851;45.648;9.004;2023-05-09T00:43:09;99265.06;;;17.71;64.10
59063;BME280;44851;45.648;9.004;2023-05-09T00:45:35;99262.28;;;17.49;63.70
59063;BME280;44851;45.648;9.004;2023-05-09T00:48:00;99269.66;;;17.69;64.29
59063;BME280;44851;45.648;9.004;2023-05-09T00:50:25;99265.19;;;17.54;62.55
59063;BME280;44851;45.648;9.004;2023-05-09T00:52:51;99260.28;;;17.51;64.16
59063;BME280;44851;45.648;9.004;2023-05-09T00:55:17;99257.28;;;17.54;63.89
59063;BME280;44851;45.648;9.004;2023-05-09T00:57:43;99258.88;;;17.63;64.34
59063;BME280;44851;45.648;9.004;2023-05-09T01:00:09;99270.09;;;17.57;64.57
59063;BME280;44851;45.648;9.004;2023-05-09T01:02:42;99267.88;;;17.46;64.40
59063;BME280;44851;45.648;9.004;2023-05-09T01:05:08;99270.81;;;17.51;64.47
59063;BME280;44851;45.648;9.004;2023-05-09T01:07:44;99277.38;;;17.55;63.99
59063;BME280;44851;45.648;9.004;2023-05-09T01:12:57;99271.75;;;17.58;63.96
59063;BME280;44851;45.648;9.004;2023-05-09T01:18:11;99266.31;;;17.60;63.89
59063;BME280;44851;45.648;9.004;2023-05-09T01:20:50;99263.84;;;17.58;64.77
59063;BME280;44851;45.648;9.004;2023-05-09T01:29:36;99253.94;;;17.60;63.80
59063;BME280;44851;45.648;9.004;2023-05-09T01:32:09;99258.59;;;17.73;65.00
59063;BME280;44851;45.648;9.004;2023-05-09T01:34:37;99256.84;;;17.65;65.06
59063;BME280;44851;45.648;9.004;2023-05-09T01:37:04;99247.94;;;17.67;66.09
59063;BME280;44851;45.648;9.004;2023-05-09T01:39:32;99255.84;;;17.67;65.74
59063;BME280;44851;45.648;9.004;2023-05-09T01:42:01;99250.53;;;17.75;66.13
59063;BME280;44851;45.648;9.004;2023-05-09T01:44:34;99248.84;;;17.74;66.03
59063;BME280;44851;45.648;9.004;2023-05-09T01:47:02;99250.03;;;17.71;64.74
59063;BME280;44851;45.648;9.004;2023-05-09T01:49:29;99247.59;;;17.70;64.70
59063;BME280;44851;45.648;9.004;2023-05-09T01:51:57;99238.94;;;17.61;63.83
59063;BME280;44851;45.648;9.004;2023-05-09T01:54:24;99239.03;;;17.68;65.12
59063;BME280;44851;45.648;9.004;2023-05-09T01:56:51;99245.13;;;17.68;64.15
59063;BME280;44851;45.648;9.004;2023-05-09T01:59:19;99244.50;;;17.66;64.60
59063;BME280;44851;45.648;9.004;2023-05-09T02:01:45;99237.78;;;17.63;64.12
59063;BME280;44851;45.648;9.004;2023-05-09T02:04:12;99236.25;;;17.69;64.04
59063;BME280;44851;45.648;9.004;2023-05-09T02:06:40;99231.84;;;17.61;63.65
59063;BME280;44851;45.648;9.004;2023-05-09T02:09:06;99233.47;;;17.62;63.61
59063;BME280;44851;45.648;9.004;2023-05-09T02:11:32;99230.56;;;17.57;63.89
59063;BME280;44851;45.648;9.004;2023-05-09T02:13:58;99234.47;;;17.61;64.32
59063;BME280;44851;45.648;9.004;2023-05-09T02:16:23;99229.59;;;17.58;65.03
59063;BME280;44851;45.648;9.004;2023-05-09T02:18:49;99231.22;;;17.59;65.42
59063;BME280;44851;45.648;9.004;2023-05-09T02:21:14;99227.56;;;17.60;65.80
59063;BME280;44851;45.648;9.004;2023-05-09T02:23:39;99228.13;;;17.56;64.83
59063;BME280;44851;45.648;9.004;2023-05-09T02:26:05;99232.84;;;17.60;65.37
59063;BME280;44851;45.648;9.004;2023-05-09T02:28:31;99240.56;;;17.62;64.89
59063;BME280;44851;45.648;9.004;2023-05-09T02:30:58;99248.66;;;17.60;64.93
59063;BME280;44851;45.648;9.004;2023-05-09T02:33:26;99245.53;;;17.42;62.82
59063;BME280;44851;45.648;9.004;2023-05-09T02:35:52;99241.19;;;17.49;63.64
59063;BME280;44851;45.648;9.004;2023-05-09T02:38:18;99241.81;;;17.51;64.46
59063;BME280;44851;45.648;9.004;2023-05-09T02:40:45;99247.09;;;17.51;63.97
59063;BME280;44851;45.648;9.004;2023-05-09T02:43:11;99244.56;;;17.58;64.93
59063;BME280;44851;45.648;9.004;2023-05-09T02:45:36;99241.63;;;17.38;61.72
59063;BME280;44851;45.648;9.004;2023-05-09T02:48:02;99237.78;;;17.41;62.45
59063;BME280;44851;45.648;9.004;2023-05-09T02:50:27;99232.41;;;17.34;63.34
59063;BME280;44851;45.648;9.004;2023-05-09T02:52:53;99231.66;;;17.25;61.76
59063;BME280;44851;45.648;9.004;2023-05-09T02:55:18;99240.38;;;17.26;61.69
59063;BME280;44851;45.648;9.004;2023-05-09T02:57:44;99239.44;;;17.19;62.86
59063;BME280;44851;45.648;9.004;2023-05-09T03:00:10;99238.59;;;17.41;63.78
59063;BME280;44851;45.648;9.004;2023-05-09T03:02:36;99234.00;;;17.43;63.34
59063;BME280;44851;45.648;9.004;2023-05-09T03:05:01;99235.97;;;17.41;63.88
59063;BME280;44851;45.648;9.004;2023-05-09T03:07:27;99233.84;;;17.22;64.10
59063;BME280;44851;45.648;9.004;2023-05-09T03:09:53;99233.03;;;17.21;62.71
59063;BME280;44851;45.648;9.004;2023-05-09T03:12:19;99230.41;;;17.36;63.96
59063;BME280;44851;45.648;9.004;2023-05-09T03:14:44;99233.75;;;17.30;62.87
59063;BME280;44851;45.648;9.004;2023-05-09T03:17:09;99241.66;;;17.30;62.65
59063;BME280;44851;45.648;9.004;2023-05-09T03:19:35;99239.44;;;17.42;63.37
59063;BME280;44851;45.648;9.004;2023-05-09T03:22:00;99243.53;;;17.44;63.63
59063;BME280;44851;45.648;9.004;2023-05-09T03:24:26;99238.25;;;17.44;63.83
59063;BME280;44851;45.648;9.004;2023-05-09T03:26:52;99244.34;;;17.45;63.21
59063;BME280;44851;45.648;9.004;2023-05-09T03:29:18;99248.91;;;17.51;63.82
59063;BME280;44851;45.648;9.004;2023-05-09T03:31:43;99241.09;;;17.57;63.03
59063;BME280;44851;45.648;9.004;2023-05-09T03:34:08;99241.44;;;17.39;62.51
59063;BME280;44851;45.648;9.004;2023-05-09T03:36:40;99226.81;;;17.37;63.57
59063;BME280;44851;45.648;9.004;2023-05-09T03:39:05;99220.25;;;17.33;62.86
59063;BME280;44851;45.648;9.004;2023-05-09T03:41:32;99219.97;;;17.28;62.80
59063;BME280;44851;45.648;9.004;2023-05-09T03:44:00;99212.41;;;17.25;61.79
59063;BME280;44851;45.648;9.004;2023-05-09T03:46:25;99214.78;;;17.34;62.03
59063;BME280;44851;45.648;9.004;2023-05-09T03:48:50;99221.53;;;17.37;62.78
59063;BME280;44851;45.648;9.004;2023-05-09T03:51:16;99216.72;;;17.41;62.91
59063;BME280;44851;45.648;9.004;2023-05-09T03:53:42;99208.72;;;17.34;62.46
59063;BME280;44851;45.648;9.004;2023-05-09T03:56:07;99207.28;;;17.46;63.53
59063;BME280;44851;45.648;9.004;2023-05-09T03:58:33;99211.19;;;17.50;64.27
59063;BME280;44851;45.648;9.004;2023-05-09T04:00:58;99212.53;;;17.46;64.42
59063;BME280;44851;45.648;9.004;2023-05-09T04:03:23;99219.88;;;17.36;64.92
59063;BME280;44851;45.648;9.004;2023-05-09T04:05:49;99224.63;;;17.41;64.49
59063;BME280;44851;45.648;9.004;2023-05-09T04:08:14;99233.72;;;17.38;64.17
59063;BME280;44851;45.648;9.004;2023-05-09T04:10:40;99229.59;;;17.35;63.87
59063;BME280;44851;45.648;9.004;2023-05-09T04:13:05;99228.25;;;17.39;63.54
59063;BME280;44851;45.648;9.004;2023-05-09T04:15:31;99222.13;;;17.24;64.03
59063;BME280;44851;45.648;9.004;2023-05-09T04:17:56;99227.19;;;17.26;64.21
59063;BME280;44851;45.648;9.004;2023-05-09T04:20:21;99222.00;;;17.18;64.48
59063;BME280;44851;45.648;9.004;2023-05-09T04:22:47;99227.16;;;17.34;65.05
59063;BME280;44851;45.648;9.004;2023-05-09T04:25:12;99236.63;;;17.43;65.14
59063;BME280;44851;45.648;9.004;2023-05-09T04:27:38;99237.69;;;17.34;64.58
59063;BME280;44851;45.648;9.004;2023-05-09T04:30:05;99239.22;;;17.28;65.29
59063;BME280;44851;45.648;9.004;2023-05-09T04:32:30;99241.66;;;17.30;65.40
59063;BME280;44851;45.648;9.004;2023-05-09T04:34:56;99239.78;;;17.38;65.51
59063;BME280;44851;45.648;9.004;2023-05-09T04:37:21;99231.03;;;17.23;64.61
59063;BME280;44851;45.648;9.004;2023-05-09T04:39:47;99229.84;;;17.26;65.31
59063;BME280;44851;45.648;9.004;2023-05-09T04:42:12;99230.44;;;17.13;65.21
59063;BME280;44851;45.648;9.004;2023-05-09T04:44:37;99241.16;;;17.11;65.11
59063;BME280;44851;45.648;9.004;2023-05-09T04:47:03;99233.03;;;17.21;64.77
59063;BME280;44851;45.648;9.004;2023-05-09T04:49:28;99228.88;;;17.27;65.88
59063;BME280;44851;45.648;9.004;2023-05-09T04:51:53;99234.19;;;17.19;65.16
59063;BME280;44851;45.648;9.004;2023-05-09T04:54:18;99237.69;;;17.34;65.51
59063;BME280;44851;45.648;9.004;2023-05-09T04:56:44;99231.41;;;17.35;65.23
59063;BME280;44851;45.648;9.004;2023-05-09T04:59:09;99233.72;;;17.38;64.84
59063;BME280;44851;45.648;9.004;2023-05-09T05:01:34;99233.06;;;17.36;65.23
59063;BME280;44851;45.648;9.004;2023-05-09T05:04:00;99232.47;;;17.26;65.87
59063;BME280;44851;45.648;9.004;2023-05-09T05:06:25;99225.84;;;17.30;65.32
59063;BME280;44851;45.648;9.004;2023-05-09T05:08:51;99230.78;;;17.33;65.07
59063;BME280;44851;45.648;9.004;2023-05-09T05:11:16;99239.31;;;17.35;64.88
59063;BME280;44851;45.648;9.004;2023-05-09T05:13:45;99238.03;;;17.31;64.95
59063;BME280;44851;45.648;9.004;2023-05-09T05:16:11;99231.94;;;17.30;65.12
59063;BME280;44851;45.648;9.004;2023-05-09T05:18:36;99231.03;;;17.23;65.25
59063;BME280;44851;45.648;9.004;2023-05-09T05:21:03;99231.22;;;17.22;65.34
59063;BME280;44851;45.648;9.004;2023-05-09T05:23:28;99244.00;;;17.25;64.66
59063;BME280;44851;45.648;9.004;2023-05-09T05:25:53;99241.78;;;17.36;64.85
59063;BME280;44851;45.648;9.004;2023-05-09T05:28:19;99232.41;;;17.34;64.29
59063;BME280;44851;45.648;9.004;2023-05-09T05:30:44;99231.59;;;17.33;64.71
59063;BME280;44851;45.648;9.004;2023-05-09T05:33:10;99241.31;;;17.33;64.89
59063;BME280;44851;45.648;9.004;2023-05-09T05:35:35;99241.97;;;17.35;65.14
59063;BME280;44851;45.648;9.004;2023-05-09T05:38:00;99241.31;;;17.33;65.10
59063;BME280;44851;45.648;9.004;2023-05-09T05:40:26;99239.81;;;17.16;65.22
59063;BME280;44851;45.648;9.004;2023-05-09T05:42:51;99236.41;;;17.30;64.72
59063;BME280;44851;45.648;9.004;2023-05-09T05:45:17;99245.63;;;17.26;65.13
59063;BME280;44851;45.648;9.004;2023-05-09T05:47:42;99237.81;;;17.18;64.12
59063;BME280;44851;45.648;9.004;2023-05-09T05:50:07;99238.53;;;17.11;63.81
59063;BME280;44851;45.648;9.004;2023-05-09T05:52:39;99238.94;;;17.23;63.80
59063;BME280;44851;45.648;9.004;2023-05-09T05:55:06;99236.06;;;17.33;64.21
59063;BME280;44851;45.648;9.004;2023-05-09T05:57:31;99231.41;;;17.35;64.26
59063;BME280;44851;45.648;9.004;2023-05-09T05:59:58;99228.69;;;17.28;64.75
59063;BME280;44851;45.648;9.004;2023-05-09T06:02:23;99235.19;;;17.18;64.69
59063;BME280;44851;45.648;9.004;2023-05-09T06:04:49;99227.88;;;17.28;64.00
59063;BME280;44851;45.648;9.004;2023-05-09T06:07:14;99224.84;;;17.16;63.97
59063;BME280;44851;45.648;9.004;2023-05-09T06:09:40;99232.84;;;17.23;63.66
59063;BME280;44851;45.648;9.004;2023-05-09T06:12:05;99229.19;;;17.24;62.32
59063;BME280;44851;45.648;9.004;2023-05-09T06:14:31;99233.19;;;17.20;62.69
59063;BME280;44851;45.648;9.004;2023-05-09T06:17:00;99230.91;;;17.17;62.87
59063;BME280;44851;45.648;9.004;2023-05-09T06:19:25;99236.53;;;17.13;62.16
59063;BME280;44851;45.648;9.004;2023-05-09T06:21:50;99229.16;;;17.09;61.56
59063;BME280;44851;45.648;9.004;2023-05-09T06:24:16;99228.66;;;17.05;61.71
59063;BME280;44851;45.648;9.004;2023-05-09T06:26:42;99228.00;;;17.11;61.50
59063;BME280;44851;45.648;9.004;2023-05-09T06:29:07;99231.13;;;17.07;60.97
59063;BME280;44851;45.648;9.004;2023-05-09T06:31:33;99237.53;;;17.04;60.88
59063;BME280;44851;45.648;9.004;2023-05-09T06:34:06;99240.16;;;17.12;61.14
59063;BME280;44851;45.648;9.004;2023-05-09T06:36:32;99241.25;;;17.18;60.63
59063;BME280;44851;45.648;9.004;2023-05-09T06:38:58;99238.44;;;17.20;60.26
59063;BME280;44851;45.648;9.004;2023-05-09T06:41:23;99243.38;;;17.23;60.76
59063;BME280;44851;45.648;9.004;2023-05-09T06:43:49;99241.25;;;17.18;60.77
59063;BME280;44851;45.648;9.004;2023-05-09T06:46:14;99243.09;;;17.18;60.74
59063;BME280;44851;45.648;9.004;2023-05-09T06:48:40;99237.81;;;17.18;60.38
59063;BME280;44851;45.648;9.004;2023-05-09T06:51:05;99242.03;;;17.27;59.95
59063;BME280;44851;45.648;9.004;2023-05-09T06:53:30;99245.00;;;17.24;61.02
59063;BME280;44851;45.648;9.004;2023-05-09T06:55:56;99250.81;;;17.42;61.63
59063;BME280;44851;45.648;9.004;2023-05-09T06:58:21;99252.44;;;17.43;62.33
59063;BME280;44851;45.648;9.004;2023-05-09T07:00:47;99242.38;;;17.24;59.97
59063;BME280;44851;45.648;9.004;2023-05-09T07:03:13;99239.84;;;17.07;59.33
59063;BME280;44851;45.648;9.004;2023-05-09T07:05:38;99239.97;;;17.14;60.32
59063;BME280;44851;45.648;9.004;2023-05-09T07:08:03;99248.69;;;17.15;60.59
59063;BME280;44851;45.648;9.004;2023-05-09T07:10:29;99243.13;;;17.09;60.05
59063;BME280;44851;45.648;9.004;2023-05-09T07:12:54;99238.25;;;16.98;60.23
59063;BME280;44851;45.648;9.004;2023-05-09T07:15:20;99237.81;;;17.18;59.51
59063;BME280;44851;45.648;9.004;2023-05-09T07:17:45;99234.28;;;17.25;59.98
59063;BME280;44851;45.648;9.004;2023-05-09T07:20:11;99234.66;;;17.22;60.03
59063;BME280;44851;45.648;9.004;2023-05-09T07:22:36;99229.84;;;17.26;59.36
59063;BME280;44851;45.648;9.004;2023-05-09T07:25:02;99229.72;;;17.42;59.62
59063;BME280;44851;45.648;9.004;2023-05-09T07:27:27;99221.63;;;17.44;59.34
59063;BME280;44851;45.648;9.004;2023-05-09T07:29:53;99225.72;;;17.46;59.28
59063;BME280;44851;45.648;9.004;2023-05-09T07:32:21;99214.75;;;17.43;58.80
59063;BME280;44851;45.648;9.004;2023-05-09T07:34:48;99218.56;;;17.55;59.72
59063;BME280;44851;45.648;9.004;2023-05-09T07:37:13;99218.81;;;17.45;58.71
59063;BME280;44851;45.648;9.004;2023-05-09T07:39:39;99223.38;;;17.51;58.36
59063;BME280;44851;45.648;9.004;2023-05-09T07:42:04;99228.88;;;17.64;58.29
59063;BME280;44851;45.648;9.004;2023-05-09T07:44:30;99226.22;;;17.64;57.39
59063;BME280;44851;45.648;9.004;2023-05-09T07:46:55;99227.16;;;17.86;57.82
59063;BME280;44851;45.648;9.004;2023-05-09T07:49:23;99207.63;;;18.10;57.30
59063;BME280;44851;45.648;9.004;2023-05-09T07:51:49;99203.34;;;18.09;56.29
59063;BME280;44851;45.648;9.004;2023-05-09T07:54:14;99206.72;;;18.03;55.29
59063;BME280;44851;45.648;9.004;2023-05-09T07:56:40;99205.16;;;17.94;55.43
59063;BME280;44851;45.648;9.004;2023-05-09T07:59:05;99205.84;;;17.96;56.25
59063;BME280;44851;45.648;9.004;2023-05-09T08:01:30;99201.09;;;18.06;56.74
59063;BME280;44851;45.648;9.004;2023-05-09T08:03:56;99191.06;;;18.16;56.48
59063;BME280;44851;45.648;9.004;2023-05-09T08:06:21;99199.69;;;18.40;56.32
59063;BME280;44851;45.648;9.004;2023-05-09T08:08:46;99204.53;;;18.22;54.63
59063;BME280;44851;45.648;9.004;2023-05-09T08:11:12;99199.16;;;18.15;55.68
59063;BME280;44851;45.648;9.004;2023-05-09T08:13:37;99199.25;;;18.22;55.45
59063;BME280;44851;45.648;9.004;2023-05-09T08:16:03;99201.72;;;18.08;55.60
59063;BME280;44851;45.648;9.004;2023-05-09T08:18:28;99205.72;;;18.34;55.36
59063;BME280;44851;45.648;9.004;2023-05-09T08:20:53;99200.53;;;18.26;55.02
59063;BME280;44851;45.648;9.004;2023-05-09T08:23:19;99197.34;;;18.30;54.80
59063;BME280;44851;45.648;9.004;2023-05-09T08:25:44;99199.78;;;18.32;54.49
59063;BME280;44851;45.648;9.004;2023-05-09T08:28:10;99206.25;;;18.44;55.49
59063;BME280;44851;45.648;9.004;2023-05-09T08:30:35;99199.72;;;18.61;53.88
59063;BME280;44851;45.648;9.004;2023-05-09T08:33:00;99204.63;;;18.64;52.97
59063;BME280;44851;45.648;9.004;2023-05-09T08:35:26;99186.59;;;19.04;54.73
59063;BME280;44851;45.648;9.004;2023-05-09T08:37:51;99186.56;;;19.26;55.02
59063;BME280;44851;45.648;9.004;2023-05-09T08:40:17;99188.69;;;19.37;52.61
59063;BME280;44851;45.648;9.004;2023-05-09T08:42:43;99183.31;;;19.24;51.57
59063;BME280;44851;45.648;9.004;2023-05-09T08:45:11;99180.19;;;18.92;52.43
59063;BME280;44851;45.648;9.004;2023-05-09T08:47:39;99181.00;;;18.92;52.26
59063;BME280;44851;45.648;9.004;2023-05-09T08:50:05;99177.78;;;18.97;52.18
59063;BME280;44851;45.648;9.004;2023-05-09T08:52:31;99185.25;;;18.93;51.99
59063;BME280;44851;45.648;9.004;2023-05-09T08:54:58;99180.44;;;18.97;52.86
59063;BME280;44851;45.648;9.004;2023-05-09T08:57:25;99183.22;;;19.17;51.39
59063;BME280;44851;45.648;9.004;2023-05-09T08:59:51;99179.22;;;19.00;51.37
59063;BME280;44851;45.648;9.004;2023-05-09T09:02:18;99172.97;;;18.86;51.41
59063;BME280;44851;45.648;9.004;2023-05-09T09:04:43;99184.69;;;18.98;52.73
59063;BME280;44851;45.648;9.004;2023-05-09T09:07:10;99187.59;;;19.03;52.51
59063;BME280;44851;45.648;9.004;2023-05-09T09:09:36;99178.66;;;19.04;51.84
59063;BME280;44851;45.648;9.004;2023-05-09T09:12:06;99172.56;;;19.04;50.69
59063;BME280;44851;45.648;9.004;2023-05-09T09:14:36;99172.00;;;18.87;50.82
59063;BME280;44851;45.648;9.004;2023-05-09T09:17:04;99173.63;;;18.88;50.93
59063;BME280;44851;45.648;9.004;2023-05-09T09:19:31;99181.06;;;18.99;50.89
59063;BME280;44851;45.648;9.004;2023-05-09T09:21:58;99168.09;;;19.04;51.10
59063;BME280;44851;45.648;9.004;2023-05-09T09:24:26;99169.97;;;19.10;51.35
59063;BME280;44851;45.648;9.004;2023-05-09T09:26:52;99159.28;;;19.18;50.60
59063;BME280;44851;45.648;9.004;2023-05-09T09:29:18;99163.78;;;19.25;51.00
59063;BME280;44851;45.648;9.004;2023-05-09T09:31:46;99160.22;;;19.39;51.01
59063;BME280;44851;45.648;9.004;2023-05-09T09:34:13;99157.06;;;19.50;51.24
59063;BME280;44851;45.648;9.004;2023-05-09T09:36:43;99159.59;;;19.37;50.57
59063;BME280;44851;45.648;9.004;2023-05-09T09:39:12;99159.94;;;19.27;49.81
59063;BME280;44851;45.648;9.004;2023-05-09T09:41:38;99162.28;;;19.15;51.18
59063;BME280;44851;45.648;9.004;2023-05-09T09:44:12;99155.63;;;19.19;50.63
59063;BME280;44851;45.648;9.004;2023-05-09T09:46:50;99161.53;;;19.21;50.29
59063;BME280;44851;45.648;9.004;2023-05-09T09:49:20;99155.50;;;19.06;50.29
59063;BME280;44851;45.648;9.004;2023-05-09T09:51:50;99162.53;;;19.20;50.23
59063;BME280;44851;45.648;9.004;2023-05-09T09:54:16;99154.94;;;19.11;50.79
59063;BME280;44851;45.648;9.004;2023-05-09T09:56:43;99149.06;;;19.15;51.38
59063;BME280;44851;45.648;9.004;2023-05-09T09:59:12;99140.66;;;19.33;50.93
59063;BME280;44851;45.648;9.004;2023-05-09T10:01:57;99145.41;;;19.16;49.80
59063;BME280;44851;45.648;9.004;2023-05-09T10:04:24;99152.69;;;19.36;49.43
59063;BME280;44851;45.648;9.004;2023-05-09T10:06:54;99141.06;;;19.30;48.63
59063;BME280;44851;45.648;9.004;2023-05-09T10:09:21;99142.03;;;19.51;51.00
59063;BME280;44851;45.648;9.004;2023-05-09T10:11:49;99137.16;;;19.54;49.93
59063;BME280;44851;45.648;9.004;2023-05-09T10:14:18;99127.28;;;19.63;50.08
59063;BME280;44851;45.648;9.004;2023-05-09T10:16:46;99125.34;;;19.85;48.39
59063;BME280;44851;45.648;9.004;2023-05-09T10:19:12;99130.06;;;19.89;47.42
59063;BME280;44851;45.648;9.004;2023-05-09T10:21:39;99122.72;;;19.85;47.44
59063;BME280;44851;45.648;9.004;2023-05-09T10:24:06;99126.13;;;20.27;48.90
59063;BME280;44851;45.648;9.004;2023-05-09T10:26:36;99128.19;;;20.31;47.49
59063;BME280;44851;45.648;9.004;2023-05-09T10:29:05;99124.06;;;20.15;47.81
59063;BME280;44851;45.648;9.004;2023-05-09T10:31:35;99122.47;;;20.21;46.98
59063;BME280;44851;45.648;9.004;2023-05-09T10:34:04;99124.91;;;20.22;48.47
59063;BME280;44851;45.648;9.004;2023-05-09T10:36:34;99118.72;;;20.02;48.30
59063;BME280;44851;45.648;9.004;2023-05-09T10:39:01;99106.56;;;20.14;48.83
59063;BME280;44851;45.648;9.004;2023-05-09T10:41:26;99111.34;;;20.45;47.70
59063;BME280;44851;45.648;9.004;2023-05-09T10:43:54;99106.91;;;20.72;48.10
59063;BME280;44851;45.648;9.004;2023-05-09T10:46:22;99099.69;;;20.33;46.80
59063;BME280;44851;45.648;9.004;2023-05-09T10:48:48;99094.88;;;20.63;49.29
59063;BME280;44851;45.648;9.004;2023-05-09T10:51:14;99094.47;;;20.60;46.85
59063;BME280;44851;45.648;9.004;2023-05-09T10:53:48;99093.84;;;20.64;46.31
59063;BME280;44851;45.648;9.004;2023-05-09T10:56:29;99092.63;;;20.47;45.13
59063;BME280;44851;45.648;9.004;2023-05-09T10:59:00;99087.84;;;20.29;46.08
59063;BME280;44851;45.648;9.004;2023-05-09T11:03:56;99076.72;;;20.60;46.66
59063;BME280;44851;45.648;9.004;2023-05-09T11:06:43;99075.84;;;20.27;46.20
59063;BME280;44851;45.648;9.004;2023-05-09T11:14:38;99056.19;;;20.69;46.07
59063;BME280;44851;45.648;9.004;2023-05-09T11:22:21;99050.66;;;21.10;47.80
59063;BME280;44851;45.648;9.004;2023-05-09T11:24:49;99045.16;;;20.98;45.69
59063;BME280;44851;45.648;9.004;2023-05-09T11:27:23;99039.63;;;21.33;46.06
59063;BME280;44851;45.648;9.004;2023-05-09T11:29:53;99032.91;;;21.04;43.85
59063;BME280;44851;45.648;9.004;2023-05-09T11:32:20;99028.84;;;20.88;44.85
59063;BME280;44851;45.648;9.004;2023-05-09T11:34:47;99025.19;;;20.96;45.28
59063;BME280;44851;45.648;9.004;2023-05-09T11:37:16;99025.16;;;21.09;44.57
59063;BME280;44851;45.648;9.004;2023-05-09T11:39:58;99023.03;;;21.51;43.59
59063;BME280;44851;45.648;9.004;2023-05-09T11:42:26;99012.38;;;21.64;43.82
59063;BME280;44851;45.648;9.004;2023-05-09T11:44:52;99003.72;;;21.89;44.62
59063;BME280;44851;45.648;9.004;2023-05-09T11:47:18;98998.50;;;21.69;44.68
59063;BME280;44851;45.648;9.004;2023-05-09T11:49:44;99001.66;;;21.84;45.40
59063;BME280;44851;45.648;9.004;2023-05-09T11:52:09;98999.97;;;22.03;46.43
59063;BME280;44851;45.648;9.004;2023-05-09T11:54:38;99007.75;;;21.98;46.38
59063;BME280;44851;45.648;9.004;2023-05-09T11:57:04;98991.06;;;21.91;44.96
59063;BME280;44851;45.648;9.004;2023-05-09T11:59:30;98992.75;;;21.72;42.84
59063;BME280;44851;45.648;9.004;2023-05-09T12:01:56;98986.56;;;21.91;44.19
59063;BME280;44851;45.648;9.004;2023-05-09T12:04:21;98987.50;;;22.03;45.19
59063;BME280;44851;45.648;9.004;2023-05-09T12:06:47;98983.97;;;22.16;45.47
59063;BME280;44851;45.648;9.004;2023-05-09T12:09:13;98972.66;;;21.96;43.00
59063;BME280;44851;45.648;9.004;2023-05-09T12:11:47;98975.31;;;21.96;42.86
59063;BME280;44851;45.648;9.004;2023-05-09T12:14:28;98970.00;;;21.96;45.54
59063;BME280;44851;45.648;9.004;2023-05-09T12:16:54;98971.28;;;21.87;45.20
59063;BME280;44851;45.648;9.004;2023-05-09T12:19:20;98965.56;;;21.90;46.00
59063;BME280;44851;45.648;9.004;2023-05-09T12:21:45;98969.84;;;21.77;44.68
59063;BME280;44851;45.648;9.004;2023-05-09T12:24:10;98962.34;;;21.23;44.66
59063;BME280;44851;45.648;9.004;2023-05-09T12:26:36;98957.34;;;21.53;45.13
59063;BME280;44851;45.648;9.004;2023-05-09T12:29:01;98956.13;;;21.49;46.62
59063;BME280;44851;45.648;9.004;2023-05-09T12:31:27;98953.03;;;21.52;46.06
59063;BME280;44851;45.648;9.004;2023-05-09T12:33:53;98953.72;;;21.47;45.55
59063;BME280;44851;45.648;9.004;2023-05-09T12:36:18;98949.56;;;21.58;47.66
59063;BME280;44851;45.648;9.004;2023-05-09T12:38:53;98944.63;;;21.68;46.21
59063;BME280;44851;45.648;9.004;2023-05-09T12:41:19;98942.97;;;21.74;45.14
59063;BME280;44851;45.648;9.004;2023-05-09T12:43:49;98937.31;;;21.57;45.99
59063;BME280;44851;45.648;9.004;2023-05-09T12:46:19;98940.47;;;21.79;46.23
59063;BME280;44851;45.648;9.004;2023-05-09T12:48:45;98947.66;;;21.72;46.19
59063;BME280;44851;45.648;9.004;2023-05-09T12:51:16;98934.97;;;21.36;45.40
59063;BME280;44851;45.648;9.004;2023-05-09T12:53:41;98935.44;;;21.26;46.57
59063;BME280;44851;45.648;9.004;2023-05-09T12:56:15;98926.81;;;21.37;47.76
59063;BME280;44851;45.648;9.004;2023-05-09T12:58:54;98932.13;;;21.31;45.98
59063;BME280;44851;45.648;9.004;2023-05-09T13:01:22;98925.56;;;21.40;46.79
59063;BME280;44851;45.648;9.004;2023-05-09T13:03:52;98922.03;;;21.59;48.27
59063;BME280;44851;45.648;9.004;2023-05-09T13:06:23;98909.63;;;21.53;45.66
59063;BME280;44851;45.648;9.004;2023-05-09T13:08:59;98903.34;;;21.41;45.42
59063;BME280;44851;45.648;9.004;2023-05-09T13:11:25;98911.28;;;21.47;46.21
59063;BME280;44851;45.648;9.004;2023-05-09T13:13:53;98896.53;;;21.51;47.58
59063;BME280;44851;45.648;9.004;2023-05-09T13:16:18;98882.09;;;21.47;45.94
59063;BME280;44851;45.648;9.004;2023-05-09T13:18:44;98886.75;;;21.52;45.90
59063;BME280;44851;45.648;9.004;2023-05-09T13:21:09;98879.81;;;21.51;46.87
59063;BME280;44851;45.648;9.004;2023-05-09T13:23:35;98879.66;;;21.77;48.70